createdAt,value
2023-03-27T00:02:08.419Z,4.53
2023-03-27T00:04:35.113Z,4.19
2023-03-27T00:07:02.094Z,4.36
2023-03-27T00:09:29.786Z,4.02
2023-03-27T00:11:56.409Z,4.27
2023-03-27T00:14:25.294Z,4.19
2023-03-27T00:16:52.421Z,3.82
2023-03-27T00:19:19.185Z,3.98
2023-03-27T00:21:45.723Z,4.24
2023-03-27T00:24:12.365Z,3.92
2023-03-27T00:26:40.737Z,4.34
2023-03-27T00:29:08.034Z,4.19
2023-03-27T00:31:34.675Z,4.11
2023-03-27T00:34:01.876Z,3.83
2023-03-27T00:36:28.422Z,3.72
2023-03-27T00:38:55.004Z,3.73
2023-03-27T00:41:21.850Z,3.87
2023-03-27T00:43:48.947Z,4.02
2023-03-27T00:46:15.560Z,3.72
2023-03-27T00:48:43.682Z,4.02
2023-03-27T00:51:10.204Z,3.80
2023-03-27T00:53:37.239Z,3.76
2023-03-27T00:56:05.723Z,3.88
2023-03-27T00:58:37.233Z,3.88
2023-03-27T01:01:03.861Z,4.29
2023-03-27T01:03:32.326Z,3.98
2023-03-27T01:06:01.597Z,3.76
2023-03-27T01:08:29.891Z,3.78
2023-03-27T01:11:09.954Z,3.66
2023-03-27T01:14:04.478Z,3.62
2023-03-27T01:16:41.020Z,3.92
2023-03-27T01:19:32.378Z,4.38
2023-03-27T01:22:33.218Z,4.42
2023-03-27T01:25:16.326Z,4.24
2023-03-27T01:28:19.765Z,4.30
2023-03-27T01:30:58.866Z,4.09
2023-03-27T01:33:50.689Z,4.00
2023-03-27T01:36:42.085Z,4.09
2023-03-27T01:39:23.706Z,3.99
2023-03-27T01:41:56.475Z,4.40
2023-03-27T01:44:43.302Z,3.49
2023-03-27T01:47:50.259Z,3.65
2023-03-27T01:50:29.866Z,3.67
2023-03-27T01:53:07.140Z,4.03
2023-03-27T01:55:36.499Z,3.68
2023-03-27T01:58:15.162Z,3.27
2023-03-27T02:00:51.369Z,3.66
2023-03-27T02:03:31.768Z,3.53
2023-03-27T02:06:01.703Z,3.68
2023-03-27T02:08:39.964Z,3.73
2023-03-27T02:11:06.711Z,3.80
2023-03-27T02:13:40.815Z,3.65
2023-03-27T02:16:09.069Z,3.83
2023-03-27T02:18:38.649Z,3.50
2023-03-27T02:21:06.204Z,3.60
2023-03-27T02:23:32.942Z,3.32
2023-03-27T02:25:59.819Z,3.39
2023-03-27T02:28:37.030Z,3.27
2023-03-27T02:31:32.400Z,3.66
2023-03-27T02:34:26.729Z,3.30
2023-03-27T02:37:02.530Z,3.36
2023-03-27T02:39:28.999Z,3.34
2023-03-27T02:42:02.170Z,3.33
2023-03-27T02:44:33.763Z,3.64
2023-03-27T02:47:13.097Z,3.33
2023-03-27T02:49:52.471Z,3.20
2023-03-27T02:52:24.650Z,3.18
2023-03-27T02:54:54.781Z,3.32
2023-03-27T02:57:26.554Z,3.32
2023-03-27T02:59:56.532Z,3.28
2023-03-27T03:02:26.127Z,3.02
2023-03-27T03:04:57.741Z,3.41
2023-03-27T03:07:27.144Z,3.57
2023-03-27T03:09:54.080Z,4.17
2023-03-27T03:12:21.548Z,3.52
2023-03-27T03:14:48.042Z,4.20
2023-03-27T03:17:15.798Z,3.98
2023-03-27T03:19:42.259Z,3.75
2023-03-27T03:22:09.184Z,3.88
2023-03-27T03:24:35.682Z,4.00
2023-03-27T03:27:03.930Z,4.01
2023-03-27T03:29:35.528Z,4.07
2023-03-27T03:32:02.324Z,3.96
2023-03-27T03:34:30.408Z,3.90
2023-03-27T03:36:56.882Z,3.44
2023-03-27T03:39:23.485Z,3.59
2023-03-27T03:41:49.929Z,3.64
2023-03-27T03:44:16.980Z,3.57
2023-03-27T03:46:43.576Z,3.37
2023-03-27T03:49:10.472Z,3.90
2023-03-27T03:51:37.273Z,3.67
2023-03-27T03:54:06.094Z,3.87
2023-03-27T03:56:34.408Z,3.39
2023-03-27T03:59:01.585Z,3.79
2023-03-27T04:01:28.252Z,3.72
2023-03-27T04:03:54.786Z,3.67
2023-03-27T04:06:25.524Z,3.80
2023-03-27T04:08:53.163Z,3.94
2023-03-27T04:11:19.865Z,3.88
2023-03-27T04:13:46.626Z,3.77
2023-03-27T04:16:13.145Z,3.99
2023-03-27T04:18:41.457Z,3.84
2023-03-27T04:21:14.297Z,3.98
2023-03-27T04:23:42.044Z,3.90
2023-03-27T04:26:12.172Z,3.98
2023-03-27T04:28:39.568Z,3.82
2023-03-27T04:31:08.045Z,4.01
2023-03-27T04:33:39.205Z,4.65
2023-03-27T04:36:09.216Z,4.12
2023-03-27T04:38:37.173Z,4.43
2023-03-27T04:41:04.804Z,4.48
2023-03-27T04:43:31.368Z,2.52
2023-03-27T04:45:57.844Z,1.99
2023-03-27T04:48:24.327Z,2.31
2023-03-27T04:50:50.773Z,2.36
2023-03-27T04:53:20.421Z,2.36
2023-03-27T04:55:51.203Z,2.36
2023-03-27T04:58:18.413Z,2.23
2023-03-27T05:00:50.556Z,2.29
2023-03-27T05:03:20.720Z,2.16
2023-03-27T05:05:49.623Z,2.12
2023-03-27T05:08:16.965Z,2.35
2023-03-27T05:10:44.379Z,2.32
2023-03-27T05:13:11.663Z,2.27
2023-03-27T05:15:39.140Z,2.68
2023-03-27T05:18:07.178Z,2.53
2023-03-27T05:20:34.723Z,2.17
2023-03-27T05:23:01.251Z,2.32
2023-03-27T05:25:28.895Z,2.24
2023-03-27T05:27:55.534Z,2.10
2023-03-27T05:30:23.427Z,2.62
2023-03-27T05:32:52.089Z,2.71
2023-03-27T05:35:21.268Z,2.82
2023-03-27T05:37:49.305Z,2.52
2023-03-27T05:40:17.381Z,2.42
2023-03-27T05:42:45.342Z,2.63
2023-03-27T05:45:13.374Z,2.68
2023-03-27T05:47:47.618Z,2.70
2023-03-27T05:50:15.872Z,3.01
2023-03-27T05:52:42.831Z,2.42
2023-03-27T05:55:10.478Z,2.83
2023-03-27T05:57:38.788Z,2.64
2023-03-27T06:00:14.361Z,2.62
2023-03-27T06:02:43.271Z,2.81
2023-03-27T06:05:13.429Z,2.33
2023-03-27T06:07:42.473Z,2.14
2023-03-27T06:10:13.616Z,2.61
2023-03-27T06:12:41.856Z,2.48
2023-03-27T06:15:09.804Z,2.55
2023-03-27T06:17:38.976Z,2.62
2023-03-27T06:20:15.125Z,2.63
2023-03-27T06:22:45.237Z,2.85
2023-03-27T06:25:12.004Z,2.82
2023-03-27T06:27:39.238Z,2.91
2023-03-27T06:30:06.339Z,2.88
2023-03-27T06:32:32.935Z,3.32
2023-03-27T06:34:59.515Z,3.26
2023-03-27T06:37:26.043Z,2.76
2023-03-27T06:39:52.532Z,3.08
2023-03-27T06:42:19.012Z,2.83
2023-03-27T06:44:45.523Z,2.83
2023-03-27T06:47:12.902Z,2.80
2023-03-27T06:49:39.444Z,2.64
2023-03-27T06:52:05.917Z,2.88
2023-03-27T06:54:32.395Z,2.86
2023-03-27T06:57:01.315Z,3.25
2023-03-27T06:59:27.790Z,2.66
2023-03-27T07:01:54.350Z,2.91
2023-03-27T07:04:21.303Z,2.92
2023-03-27T07:06:49.016Z,2.84
2023-03-27T07:09:15.644Z,3.30
2023-03-27T07:11:42.565Z,3.28
2023-03-27T07:14:09.503Z,3.28
2023-03-27T07:16:36.070Z,3.53
2023-03-27T07:19:02.812Z,3.69
2023-03-27T07:21:29.616Z,3.52
2023-03-27T07:23:56.446Z,3.59
2023-03-27T07:26:22.990Z,3.55
2023-03-27T07:28:51.691Z,3.88
2023-03-27T07:33:48.042Z,3.99
2023-03-27T07:36:14.717Z,4.32
2023-03-27T07:38:42.310Z,3.87
2023-03-27T07:41:09.351Z,4.34
2023-03-27T07:43:35.896Z,4.89
2023-03-27T07:46:03.865Z,4.71
2023-03-27T07:48:30.534Z,4.72
2023-03-27T07:53:33.601Z,4.55
2023-03-27T07:56:01.034Z,5.31
2023-03-27T07:58:27.749Z,5.63
2023-03-27T08:00:54.670Z,5.31
2023-03-27T08:03:22.027Z,5.12
2023-03-27T08:05:56.725Z,5.48
2023-03-27T08:08:24.003Z,6.01
2023-03-27T08:10:50.945Z,5.95
2023-03-27T08:13:18.343Z,5.86
2023-03-27T08:15:44.800Z,5.84
2023-03-27T08:18:12.130Z,5.94
2023-03-27T08:20:39.070Z,6.01
2023-03-27T08:23:05.614Z,5.49
2023-03-27T08:25:33.326Z,6.30
2023-03-27T08:28:00.654Z,5.94
2023-03-27T08:30:27.255Z,6.12
2023-03-27T08:32:53.753Z,6.15
2023-03-27T08:35:20.619Z,5.70
2023-03-27T08:37:47.179Z,5.79
2023-03-27T08:40:26.210Z,6.31
2023-03-27T08:42:57.198Z,5.88
2023-03-27T08:45:27.310Z,5.75
2023-03-27T08:47:58.279Z,5.91
2023-03-27T08:50:32.045Z,6.48
2023-03-27T08:52:59.368Z,6.33
2023-03-27T08:55:37.382Z,7.04
2023-03-27T08:58:04.013Z,7.30
2023-03-27T09:00:35.900Z,7.19
2023-03-27T09:03:46.477Z,7.12
2023-03-27T09:06:38.345Z,7.17
2023-03-27T09:09:27.379Z,7.26
2023-03-27T09:12:03.447Z,7.06
2023-03-27T09:14:36.840Z,6.61
2023-03-27T09:17:12.181Z,7.17
2023-03-27T09:20:08.803Z,7.70
2023-03-27T09:22:41.415Z,7.64
2023-03-27T09:25:19.492Z,7.69
2023-03-27T09:27:47.276Z,6.31
2023-03-27T09:30:18.744Z,6.56
2023-03-27T09:32:50.148Z,6.84
2023-03-27T09:35:20.412Z,6.47
2023-03-27T09:37:48.940Z,7.14
2023-03-27T09:40:25.920Z,7.72
2023-03-27T09:42:53.519Z,7.19
2023-03-27T09:45:21.781Z,7.39
2023-03-27T09:48:15.548Z,7.36
2023-03-27T09:50:46.214Z,6.99
2023-03-27T09:53:19.101Z,7.51
2023-03-27T09:56:06.260Z,7.65
2023-03-27T09:58:35.636Z,7.09
2023-03-27T10:01:09.312Z,6.86
2023-03-27T10:03:41.838Z,7.34
2023-03-27T10:06:10.991Z,7.15
2023-03-27T10:08:44.307Z,7.83
2023-03-27T10:11:26.171Z,8.10
2023-03-27T10:13:53.560Z,7.67
2023-03-27T10:16:21.988Z,8.29
2023-03-27T10:18:50.994Z,7.44
2023-03-27T10:21:24.392Z,7.55
2023-03-27T10:23:51.597Z,7.39
2023-03-27T10:26:26.462Z,7.14
2023-03-27T10:28:53.205Z,7.03
2023-03-27T10:31:32.958Z,6.03
2023-03-27T10:34:05.961Z,7.11
2023-03-27T10:36:37.735Z,7.07
2023-03-27T10:39:09.494Z,6.47
2023-03-27T10:41:36.862Z,7.02
2023-03-27T10:44:15.590Z,7.43
2023-03-27T10:46:42.511Z,7.43
2023-03-27T10:49:25.592Z,7.18
2023-03-27T10:51:59.464Z,7.44
2023-03-27T10:55:03.538Z,7.76
2023-03-27T10:57:31.229Z,7.96
2023-03-27T11:00:18.743Z,7.49
2023-03-27T11:03:10.517Z,6.83
2023-03-27T11:05:43.325Z,7.54
2023-03-27T11:08:17.295Z,7.05
2023-03-27T11:10:46.138Z,7.56
2023-03-27T11:13:32.055Z,7.59
2023-03-27T11:16:07.390Z,7.13
2023-03-27T11:18:37.507Z,6.83
2023-03-27T11:21:24.072Z,6.90
2023-03-27T11:23:58.339Z,6.54
2023-03-27T11:26:29.763Z,5.92
2023-03-27T11:29:02.001Z,4.01
2023-03-27T11:31:40.137Z,3.48
2023-03-27T11:34:31.142Z,3.21
2023-03-27T11:37:02.656Z,3.89
2023-03-27T11:39:36.541Z,4.02
2023-03-27T11:42:13.813Z,4.02
2023-03-27T11:44:40.305Z,4.32
2023-03-27T11:47:07.424Z,5.06
2023-03-27T11:49:47.777Z,4.63
2023-03-27T11:52:14.198Z,4.37
2023-03-27T11:55:00.632Z,5.14
2023-03-27T11:57:27.318Z,5.45
2023-03-27T12:00:07.801Z,4.97
2023-03-27T12:03:07.844Z,4.32
2023-03-27T12:05:52.496Z,4.38
2023-03-27T12:08:41.240Z,4.76
2023-03-27T12:11:10.112Z,3.62
2023-03-27T12:14:00.938Z,4.38
2023-03-27T12:16:48.299Z,4.80
2023-03-27T12:19:52.362Z,5.28
2023-03-27T12:22:27.946Z,5.36
2023-03-27T12:25:15.400Z,6.09
2023-03-27T12:28:23.167Z,6.90
2023-03-27T12:30:58.798Z,6.73
2023-03-27T12:33:54.755Z,7.05
2023-03-27T12:36:24.391Z,8.01
2023-03-27T12:38:51.445Z,8.70
2023-03-27T12:41:26.072Z,7.98
2023-03-27T12:43:58.459Z,7.18
2023-03-27T12:46:25.083Z,6.79
2023-03-27T12:48:54.590Z,7.85
2023-03-27T12:51:38.335Z,7.54
2023-03-27T12:54:25.110Z,5.77
2023-03-27T12:57:14.646Z,6.05
2023-03-27T12:59:50.793Z,5.62
2023-03-27T13:02:54.185Z,5.69
2023-03-27T13:05:34.099Z,5.52
2023-03-27T13:08:21.443Z,6.34
2023-03-27T13:11:08.759Z,6.19
2023-03-27T13:13:59.644Z,6.30
2023-03-27T13:16:38.911Z,5.68
2023-03-27T13:19:15.307Z,5.40
2023-03-27T13:22:03.802Z,5.29
2023-03-27T13:24:52.453Z,4.64
2023-03-27T13:27:51.508Z,4.40
2023-03-27T13:30:41.507Z,4.86
2023-03-27T13:33:16.364Z,4.96
2023-03-27T13:35:58.455Z,5.27
2023-03-27T13:38:56.656Z,5.02
2023-03-27T13:41:44.541Z,5.72
2023-03-27T13:44:15.520Z,5.48
2023-03-27T13:46:45.174Z,5.86
2023-03-27T13:49:36.990Z,6.15
2023-03-27T13:52:27.945Z,5.79
2023-03-27T13:55:16.987Z,5.35
2023-03-27T13:57:58.020Z,5.41
2023-03-27T14:00:30.976Z,5.64
2023-03-27T14:03:04.423Z,5.61
2023-03-27T14:05:52.209Z,5.88
2023-03-27T14:08:36.160Z,5.93
2023-03-27T14:11:36.082Z,5.67
2023-03-27T14:14:33.862Z,5.90
2023-03-27T14:17:08.479Z,5.95
2023-03-27T14:19:52.958Z,6.03
2023-03-27T14:22:42.511Z,6.11
2023-03-27T14:25:15.341Z,6.08
2023-03-27T14:27:43.975Z,6.35
2023-03-27T14:30:20.494Z,5.91
2023-03-27T14:32:49.095Z,5.21
2023-03-27T14:35:41.485Z,5.32
2023-03-27T14:38:24.787Z,4.30
2023-03-27T14:40:55.758Z,4.65
2023-03-27T14:43:22.506Z,5.10
2023-03-27T14:45:53.567Z,4.92
2023-03-27T14:48:23.801Z,5.44
2023-03-27T14:50:54.471Z,6.15
2023-03-27T14:53:26.179Z,5.37
2023-03-27T14:55:55.323Z,5.71
2023-03-27T14:58:23.574Z,5.49
2023-03-27T15:01:01.221Z,6.00
2023-03-27T15:03:30.862Z,6.15
2023-03-27T15:06:04.559Z,6.46
2023-03-27T15:08:38.684Z,6.09
2023-03-27T15:11:18.674Z,6.08
2023-03-27T15:13:47.507Z,6.13
2023-03-27T15:16:19.482Z,6.27
2023-03-27T15:18:50.922Z,6.48
2023-03-27T15:21:21.206Z,7.02
2023-03-27T15:24:07.450Z,6.70
2023-03-27T15:26:35.484Z,6.55
2023-03-27T15:29:14.767Z,6.03
2023-03-27T15:31:45.624Z,6.06
2023-03-27T15:34:23.914Z,5.78
2023-03-27T15:36:56.684Z,5.05
2023-03-27T15:39:23.228Z,4.95
2023-03-27T15:41:51.750Z,5.30
2023-03-27T15:44:21.186Z,5.04
2023-03-27T15:47:24.684Z,5.01
2023-03-27T15:50:29.424Z,5.47
2023-03-27T15:53:01.559Z,5.34
2023-03-27T15:55:38.315Z,5.24
2023-03-27T15:58:24.562Z,5.76
2023-03-27T16:00:53.094Z,5.42
2023-03-27T16:03:22.536Z,5.68
2023-03-27T16:05:59.212Z,6.03
2023-03-27T16:08:31.658Z,5.67
2023-03-27T16:10:59.057Z,5.28
2023-03-27T16:13:33.283Z,5.42
2023-03-27T16:16:05.805Z,5.19
2023-03-27T16:18:36.806Z,5.32
2023-03-27T16:21:11.267Z,4.50
2023-03-27T16:23:37.854Z,4.72
2023-03-27T16:26:06.144Z,4.40
2023-03-27T16:28:32.726Z,4.04
2023-03-27T16:30:59.409Z,4.13
2023-03-27T16:33:29.720Z,4.34
2023-03-27T16:35:57.119Z,3.95
2023-03-27T16:38:23.892Z,4.28
2023-03-27T16:40:50.421Z,4.35
2023-03-27T16:43:17.085Z,4.67
2023-03-27T16:45:44.785Z,4.41
2023-03-27T16:48:13.445Z,4.61
2023-03-27T16:50:40.117Z,4.41
2023-03-27T16:53:06.746Z,4.64
2023-03-27T16:55:33.226Z,4.79
2023-03-27T16:57:59.664Z,4.61
2023-03-27T17:00:27.040Z,3.96
2023-03-27T17:02:53.735Z,3.56
2023-03-27T17:05:20.364Z,3.58
2023-03-27T17:07:48.187Z,3.88
2023-03-27T17:10:15.384Z,3.96
2023-03-27T17:12:41.852Z,4.12
2023-03-27T17:15:09.143Z,4.18
2023-03-27T17:17:35.638Z,4.17
2023-03-27T17:20:03.360Z,3.94
2023-03-27T17:22:31.129Z,3.99
2023-03-27T17:25:02.372Z,4.27
2023-03-27T17:27:29.135Z,4.73
2023-03-27T17:29:56.364Z,4.02
2023-03-27T17:32:24.485Z,4.25
2023-03-27T17:34:52.209Z,3.82
2023-03-27T17:37:19.872Z,3.80
2023-03-27T17:39:46.397Z,3.48
2023-03-27T17:42:12.858Z,3.63
2023-03-27T17:44:39.693Z,4.19
2023-03-27T17:47:07.568Z,3.59
2023-03-27T17:49:34.794Z,3.43
2023-03-27T17:52:02.889Z,3.06
2023-03-27T17:54:29.591Z,3.18
2023-03-27T17:56:56.135Z,3.07
2023-03-27T17:59:22.646Z,3.06
2023-03-27T18:01:49.100Z,3.35
2023-03-27T18:04:15.560Z,3.53
2023-03-27T18:06:42.038Z,3.33
2023-03-27T18:09:09.600Z,3.05
2023-03-27T18:11:36.439Z,3.44
2023-03-27T18:14:02.899Z,3.86
2023-03-27T18:16:29.462Z,3.88
2023-03-27T18:18:57.521Z,3.67
2023-03-27T18:21:24.016Z,4.07
2023-03-27T18:23:52.801Z,3.64
2023-03-27T18:26:20.133Z,3.74
2023-03-27T18:28:46.585Z,3.65
2023-03-27T18:31:13.573Z,3.98
2023-03-27T18:33:40.558Z,3.76
2023-03-27T18:36:10.783Z,3.10
2023-03-27T18:38:41.928Z,3.19
2023-03-27T18:41:09.487Z,3.21
2023-03-27T18:43:36.752Z,3.27
2023-03-27T18:46:05.529Z,3.52
2023-03-27T18:48:32.552Z,3.59
2023-03-27T18:51:05.012Z,3.65
2023-03-27T18:53:32.935Z,3.49
2023-03-27T18:56:01.471Z,3.48
2023-03-27T18:58:29.934Z,3.39
2023-03-27T19:00:58.467Z,3.38
2023-03-27T19:03:51.592Z,2.87
2023-03-27T19:06:20.636Z,2.39
2023-03-27T19:08:49.049Z,2.20
2023-03-27T19:11:16.013Z,2.17
2023-03-27T19:13:42.898Z,2.41
2023-03-27T19:16:15.341Z,2.69
2023-03-27T19:18:48.617Z,2.66
2023-03-27T19:21:15.911Z,2.48
2023-03-27T19:23:42.604Z,2.39
2023-03-27T19:26:11.392Z,2.64
2023-03-27T19:28:37.842Z,2.68
2023-03-27T19:31:08.808Z,2.80
2023-03-27T19:33:35.631Z,2.66
2023-03-27T19:36:02.210Z,2.80
2023-03-27T19:38:28.912Z,2.99
2023-03-27T19:40:55.839Z,2.82
2023-03-27T19:43:22.753Z,2.83
2023-03-27T19:46:08.178Z,2.88
2023-03-27T19:48:41.453Z,2.75
2023-03-27T19:51:07.935Z,3.02
2023-03-27T19:53:34.439Z,3.08
2023-03-27T19:56:01.820Z,3.09
2023-03-27T19:58:29.457Z,3.13
2023-03-27T20:00:56.369Z,3.27
2023-03-27T20:03:24.369Z,3.19
2023-03-27T20:05:52.603Z,3.39
2023-03-27T20:08:21.539Z,3.13
2023-03-27T20:10:49.631Z,3.59
2023-03-27T20:13:17.949Z,3.24
2023-03-27T20:15:51.421Z,3.41
2023-03-27T20:18:20.142Z,3.38
2023-03-27T20:20:48.127Z,3.34
2023-03-27T20:23:14.903Z,3.29
2023-03-27T20:25:41.739Z,3.47
2023-03-27T20:28:08.315Z,3.59
2023-03-27T20:30:37.419Z,3.32
2023-03-27T20:33:04.650Z,3.43
2023-03-27T20:35:32.572Z,3.32
2023-03-27T20:38:04.549Z,3.35
2023-03-27T20:40:52.963Z,3.03
2023-03-27T20:43:22.850Z,3.48
2023-03-27T20:45:53.216Z,3.33
2023-03-27T20:48:21.779Z,3.43
2023-03-27T20:50:51.379Z,3.73
2023-03-27T20:53:26.346Z,3.66
2023-03-27T20:56:00.681Z,3.23
2023-03-27T20:58:27.986Z,3.35
2023-03-27T21:00:56.296Z,3.00
2023-03-27T21:03:23.073Z,3.29
2023-03-27T21:05:49.837Z,3.34
2023-03-27T21:08:17.630Z,3.45
2023-03-27T21:11:01.202Z,3.51
2023-03-27T21:13:28.606Z,3.25
2023-03-27T21:15:55.695Z,3.55
2023-03-27T21:18:44.107Z,3.28
2023-03-27T21:21:10.578Z,3.33
2023-03-27T21:23:39.220Z,3.37
2023-03-27T21:26:06.290Z,3.32
2023-03-27T21:28:32.744Z,3.09
2023-03-27T21:30:59.728Z,3.89
2023-03-27T21:33:26.245Z,3.85
2023-03-27T21:35:52.770Z,3.46
2023-03-27T21:38:19.384Z,3.56
2023-03-27T21:40:47.809Z,3.72
2023-03-27T21:43:15.153Z,4.01
2023-03-27T21:45:42.471Z,3.62
2023-03-27T21:48:10.569Z,3.24
2023-03-27T21:50:37.292Z,3.33
2023-03-27T21:53:03.759Z,2.98
2023-03-27T21:55:34.379Z,3.21
2023-03-27T21:58:04.252Z,2.62
2023-03-27T22:00:34.436Z,3.05
2023-03-27T22:03:00.976Z,2.90
2023-03-27T22:05:28.085Z,2.79
2023-03-27T22:07:55.253Z,2.95
2023-03-27T22:10:21.790Z,2.89
2023-03-27T22:12:48.313Z,2.76
2023-03-27T22:15:14.775Z,2.83
2023-03-27T22:17:42.502Z,2.67
2023-03-27T22:20:10.094Z,2.47
2023-03-27T22:22:37.828Z,2.68
2023-03-27T22:25:06.507Z,2.39
2023-03-27T22:27:33.316Z,2.37
2023-03-27T22:29:59.970Z,2.12
2023-03-27T22:32:26.992Z,2.11
2023-03-27T22:34:54.816Z,2.19
2023-03-27T22:37:21.398Z,2.06
2023-03-27T22:39:48.071Z,2.18
2023-03-27T22:42:14.667Z,2.18
2023-03-27T22:44:41.127Z,1.93
2023-03-27T22:47:07.608Z,2.00
2023-03-27T22:49:36.007Z,2.07
2023-03-27T22:52:06.152Z,2.07
2023-03-27T22:54:32.677Z,2.13
2023-03-27T22:56:59.328Z,2.01
2023-03-27T22:59:25.825Z,2.06
2023-03-27T23:01:52.432Z,2.14
2023-03-27T23:04:18.948Z,2.04
2023-03-27T23:06:45.398Z,2.09
2023-03-27T23:09:11.895Z,2.28
2023-03-27T23:11:38.368Z,1.92
2023-03-27T23:14:04.896Z,2.07
2023-03-27T23:16:31.661Z,1.80
2023-03-27T23:18:58.186Z,1.84
2023-03-27T23:21:24.679Z,1.88
2023-03-27T23:23:51.201Z,1.94
2023-03-27T23:26:18.228Z,1.62
2023-03-27T23:28:45.038Z,1.80
2023-03-27T23:31:13.936Z,1.54
2023-03-27T23:33:45.513Z,1.50
2023-03-27T23:36:17.896Z,1.46
2023-03-27T23:38:44.939Z,1.52
2023-03-27T23:41:12.733Z,1.99
2023-03-27T23:43:39.158Z,1.97
2023-03-27T23:46:08.693Z,1.89
2023-03-27T23:48:35.431Z,1.89
2023-03-27T23:51:02.014Z,1.63
2023-03-27T23:53:29.279Z,1.49
2023-03-27T23:55:57.208Z,1.49
2023-03-27T23:58:28.495Z,1.32
